CFTIW CYXS-CYQU
Flight info
| Callsign | CFTIW |
|---|---|
| Flight time | 1h 6m |
| Altitude | 18000 |
| Route | DCT |
| Aircraft | BE58/L-SDE3/1200 |
Departure
| Time | 2026-05-04 10:44 |
|---|---|
| Airport | Prince George (International) Airport (CYXS) |
Arrival
| Time | 2026-05-04 11:51 |
|---|---|
| Airport | Grande Prairie Airport (CYQU) |
| Time | Latitude | Longitude | Altitude | Speed | Heading |
|---|---|---|---|---|---|
| 2026-05-04 10:29 | 53.88253 | -122.67759 | 2237 ft | 0 kts | 122° |
| 2026-05-04 10:34 | 53.88259 | -122.67774 | 2237 ft | 2 kts | 122° |
| 2026-05-04 10:34 | 53.88267 | -122.67797 | 2237 ft | 2 kts | 122° |
| 2026-05-04 10:35 | 53.88269 | -122.67802 | 2237 ft | 0 kts | 122° |
| 2026-05-04 10:36 | 53.88251 | -122.67792 | 2237 ft | 9 kts | 188° |
| 2026-05-04 10:36 | 53.88187 | -122.67857 | 2237 ft | 7 kts | 255° |
| 2026-05-04 10:36 | 53.88194 | -122.67911 | 2238 ft | 11 kts | 291° |
| 2026-05-04 10:36 | 53.88237 | -122.68044 | 2240 ft | 13 kts | 304° |
| 2026-05-04 10:37 | 53.88298 | -122.68086 | 2241 ft | 10 kts | 25° |
| 2026-05-04 10:37 | 53.88392 | -122.67994 | 2239 ft | 18 kts | 31° |
| 2026-05-04 10:37 | 53.88495 | -122.67894 | 2237 ft | 17 kts | 30° |
| 2026-05-04 10:37 | 53.88592 | -122.67795 | 2235 ft | 15 kts | 34° |
| 2026-05-04 10:39 | 53.89376 | -122.67008 | 2234 ft | 22 kts | 30° |
| 2026-05-04 10:39 | 53.89447 | -122.66950 | 2235 ft | 0 kts | 6° |
| 2026-05-04 10:40 | 53.89461 | -122.66948 | 2235 ft | 8 kts | 360° |
| 2026-05-04 10:40 | 53.89569 | -122.66975 | 2235 ft | 21 kts | 348° |
| 2026-05-04 10:40 | 53.89691 | -122.67016 | 2235 ft | 16 kts | 352° |
| 2026-05-04 10:41 | 53.89810 | -122.67049 | 2235 ft | 15 kts | 342° |
| 2026-05-04 10:41 | 53.89890 | -122.67103 | 2233 ft | 11 kts | 354° |
| 2026-05-04 10:41 | 53.89914 | -122.67075 | 2233 ft | 4 kts | 148° |
| 2026-05-04 10:41 | 53.89894 | -122.67065 | 2233 ft | 0 kts | 169° |
| 2026-05-04 10:42 | 53.89772 | -122.67029 | 2235 ft | 44 kts | 172° |
| 2026-05-04 10:43 | 53.89227 | -122.66879 | 2231 ft | 114 kts | 170° |
| 2026-05-04 10:44 | 53.85066 | -122.61727 | 5430 ft | 116 kts | 35° |
| 2026-05-04 10:45 | 53.85527 | -122.61317 | 5729 ft | 111 kts | 14° |
| 2026-05-04 10:45 | 53.86262 | -122.60922 | 6156 ft | 115 kts | 9° |
| 2026-05-04 10:45 | 53.87010 | -122.60545 | 6670 ft | 107 kts | 12° |
| 2026-05-04 10:45 | 53.87701 | -122.60167 | 7119 ft | 105 kts | 12° |
| 2026-05-04 10:46 | 53.88401 | -122.59774 | 7537 ft | 106 kts | 12° |
| 2026-05-04 10:46 | 53.89097 | -122.59356 | 7952 ft | 108 kts | 20° |
| 2026-05-04 10:46 | 53.89705 | -122.58556 | 8370 ft | 111 kts | 31° |
| 2026-05-04 10:46 | 53.90314 | -122.57741 | 8769 ft | 112 kts | 31° |
| 2026-05-04 10:47 | 53.90922 | -122.56908 | 9179 ft | 112 kts | 31° |
| 2026-05-04 10:47 | 53.91528 | -122.56057 | 9577 ft | 114 kts | 33° |
| 2026-05-04 10:47 | 53.92117 | -122.55155 | 9954 ft | 115 kts | 36° |
| 2026-05-04 10:47 | 53.92688 | -122.54194 | 10295 ft | 116 kts | 36° |
| 2026-05-04 10:49 | 53.96283 | -122.46384 | 12577 ft | 126 kts | 49° |
| 2026-05-04 10:49 | 53.96747 | -122.45115 | 12904 ft | 127 kts | 48° |
| 2026-05-04 10:50 | 53.97213 | -122.43838 | 13218 ft | 128 kts | 48° |
| 2026-05-04 10:51 | 54.00543 | -122.34716 | 15124 ft | 131 kts | 47° |
| 2026-05-04 10:52 | 54.01025 | -122.33394 | 15367 ft | 132 kts | 47° |
| 2026-05-04 10:52 | 54.01507 | -122.32072 | 15615 ft | 132 kts | 47° |
| 2026-05-04 10:52 | 54.01991 | -122.30742 | 15854 ft | 132 kts | 47° |
| 2026-05-04 10:54 | 54.05407 | -122.21338 | 17422 ft | 135 kts | 47° |
| 2026-05-04 10:54 | 54.05901 | -122.19974 | 17641 ft | 136 kts | 47° |
| 2026-05-04 10:56 | 54.09230 | -122.10752 | 18077 ft | 172 kts | 50° |
| 2026-05-04 10:56 | 54.09859 | -122.09006 | 18080 ft | 174 kts | 50° |
| 2026-05-04 10:56 | 54.10498 | -122.07236 | 18083 ft | 176 kts | 50° |
| 2026-05-04 10:57 | 54.11139 | -122.05454 | 18080 ft | 177 kts | 50° |
| 2026-05-04 10:57 | 54.11784 | -122.03666 | 18083 ft | 177 kts | 50° |
| 2026-05-04 10:57 | 54.12431 | -122.01868 | 18080 ft | 178 kts | 50° |
| 2026-05-04 10:57 | 54.13079 | -122.00066 | 18082 ft | 178 kts | 50° |
| 2026-05-04 10:58 | 54.13725 | -121.98267 | 18078 ft | 178 kts | 50° |
| 2026-05-04 10:58 | 54.14372 | -121.96467 | 18077 ft | 178 kts | 50° |
| 2026-05-04 10:58 | 54.15018 | -121.94667 | 18083 ft | 178 kts | 50° |
| 2026-05-04 10:58 | 54.15664 | -121.92867 | 18074 ft | 178 kts | 50° |
| 2026-05-04 10:59 | 54.16303 | -121.91084 | 18091 ft | 179 kts | 50° |
| 2026-05-04 10:59 | 54.16950 | -121.89274 | 18080 ft | 179 kts | 50° |
| 2026-05-04 10:59 | 54.17599 | -121.87461 | 18089 ft | 179 kts | 50° |
| 2026-05-04 10:59 | 54.18247 | -121.85649 | 18087 ft | 179 kts | 50° |
| 2026-05-04 11:00 | 54.18895 | -121.83836 | 18094 ft | 179 kts | 50° |
| 2026-05-04 11:01 | 54.23451 | -121.71043 | 18085 ft | 181 kts | 50° |
| 2026-05-04 11:02 | 54.24098 | -121.69219 | 18089 ft | 179 kts | 50° |
| 2026-05-04 11:02 | 54.24747 | -121.67399 | 18087 ft | 179 kts | 50° |
| 2026-05-04 11:05 | 54.33790 | -121.41774 | 18108 ft | 180 kts | 50° |
| 2026-05-04 11:06 | 54.34434 | -121.39940 | 18110 ft | 179 kts | 50° |
| 2026-05-04 11:06 | 54.35079 | -121.38101 | 18111 ft | 181 kts | 50° |
| 2026-05-04 11:06 | 54.35727 | -121.36250 | 18113 ft | 181 kts | 49° |
| 2026-05-04 11:06 | 54.36373 | -121.34406 | 18112 ft | 181 kts | 50° |
| 2026-05-04 11:08 | 54.40954 | -121.21283 | 18129 ft | 186 kts | 50° |
| 2026-05-04 11:10 | 54.45538 | -121.08085 | 18128 ft | 183 kts | 50° |
| 2026-05-04 11:12 | 54.50073 | -120.94960 | 18149 ft | 184 kts | 50° |
| 2026-05-04 11:12 | 54.50730 | -120.93051 | 18143 ft | 185 kts | 50° |
| 2026-05-04 11:12 | 54.51387 | -120.91137 | 18149 ft | 186 kts | 49° |
| 2026-05-04 11:12 | 54.52040 | -120.89236 | 18150 ft | 184 kts | 49° |
| 2026-05-04 11:13 | 54.52691 | -120.87342 | 18151 ft | 183 kts | 49° |
| 2026-05-04 11:13 | 54.53339 | -120.85455 | 18151 ft | 183 kts | 50° |
| 2026-05-04 11:13 | 54.53985 | -120.83572 | 18153 ft | 182 kts | 49° |
| 2026-05-04 11:13 | 54.54625 | -120.81703 | 18157 ft | 180 kts | 49° |
| 2026-05-04 11:14 | 54.55263 | -120.79844 | 18153 ft | 180 kts | 49° |
| 2026-05-04 11:14 | 54.55900 | -120.77986 | 18157 ft | 181 kts | 49° |
| 2026-05-04 11:14 | 54.56541 | -120.76112 | 18165 ft | 182 kts | 49° |
| 2026-05-04 11:16 | 54.61055 | -120.62870 | 18164 ft | 182 kts | 49° |
| 2026-05-04 11:16 | 54.61698 | -120.60977 | 18172 ft | 183 kts | 49° |
| 2026-05-04 11:16 | 54.62345 | -120.59073 | 18177 ft | 184 kts | 49° |
| 2026-05-04 11:17 | 54.62992 | -120.57163 | 18165 ft | 185 kts | 49° |
| 2026-05-04 11:17 | 54.63639 | -120.55253 | 18164 ft | 184 kts | 49° |
| 2026-05-04 11:19 | 54.68086 | -120.42101 | 18177 ft | 181 kts | 49° |
| 2026-05-04 11:19 | 54.68720 | -120.40220 | 18176 ft | 182 kts | 49° |
| 2026-05-04 11:19 | 54.69347 | -120.38359 | 18183 ft | 181 kts | 49° |
| 2026-05-04 11:19 | 54.69981 | -120.36472 | 18177 ft | 182 kts | 49° |
| 2026-05-04 11:20 | 54.70617 | -120.34580 | 18183 ft | 182 kts | 49° |
| 2026-05-04 11:20 | 54.71252 | -120.32690 | 18176 ft | 182 kts | 49° |
| 2026-05-04 11:20 | 54.71886 | -120.30803 | 18181 ft | 181 kts | 49° |
| 2026-05-04 11:20 | 54.72517 | -120.28919 | 18184 ft | 181 kts | 49° |
| 2026-05-04 11:22 | 54.76959 | -120.15637 | 18188 ft | 182 kts | 49° |
| 2026-05-04 11:22 | 54.77593 | -120.13736 | 18186 ft | 182 kts | 49° |
| 2026-05-04 11:23 | 54.78225 | -120.11836 | 18187 ft | 182 kts | 49° |
| 2026-05-04 11:23 | 54.78859 | -120.09933 | 18186 ft | 182 kts | 49° |
| 2026-05-04 11:24 | 54.82642 | -119.98536 | 18193 ft | 182 kts | 49° |
| 2026-05-04 11:25 | 54.83270 | -119.96637 | 18191 ft | 182 kts | 49° |
| 2026-05-04 11:25 | 54.83898 | -119.94738 | 18191 ft | 181 kts | 49° |
| 2026-05-04 11:25 | 54.84527 | -119.92838 | 18190 ft | 182 kts | 49° |
| 2026-05-04 11:26 | 54.85783 | -119.89031 | 18190 ft | 182 kts | 49° |
| 2026-05-04 11:27 | 54.90157 | -119.75735 | 18194 ft | 181 kts | 49° |
| 2026-05-04 11:28 | 54.90780 | -119.73832 | 18193 ft | 181 kts | 49° |
| 2026-05-04 11:28 | 54.91404 | -119.71929 | 18193 ft | 181 kts | 49° |
| 2026-05-04 11:28 | 54.92029 | -119.70022 | 18200 ft | 181 kts | 49° |
| 2026-05-04 11:28 | 54.92651 | -119.68117 | 18194 ft | 181 kts | 49° |
| 2026-05-04 11:29 | 54.93274 | -119.66213 | 18198 ft | 181 kts | 49° |
| 2026-05-04 11:29 | 54.93895 | -119.64308 | 18200 ft | 180 kts | 48° |
| 2026-05-04 11:29 | 54.94512 | -119.62419 | 18197 ft | 180 kts | 48° |
| 2026-05-04 11:29 | 54.95132 | -119.60524 | 18198 ft | 181 kts | 49° |
| 2026-05-04 11:31 | 54.99469 | -119.47178 | 18204 ft | 181 kts | 48° |
| 2026-05-04 11:33 | 55.03808 | -119.33756 | 18197 ft | 181 kts | 48° |
| 2026-05-04 11:33 | 55.04426 | -119.31838 | 18194 ft | 181 kts | 48° |
| 2026-05-04 11:33 | 55.05041 | -119.29928 | 18192 ft | 181 kts | 48° |
| 2026-05-04 11:34 | 55.05646 | -119.28047 | 18190 ft | 180 kts | 48° |
| 2026-05-04 11:34 | 55.06260 | -119.26139 | 18189 ft | 180 kts | 48° |
| 2026-05-04 11:34 | 55.06872 | -119.24234 | 18187 ft | 180 kts | 48° |
| 2026-05-04 11:34 | 55.07484 | -119.22325 | 18188 ft | 180 kts | 48° |
| 2026-05-04 11:35 | 55.08095 | -119.20421 | 18188 ft | 180 kts | 48° |
| 2026-05-04 11:35 | 55.08705 | -119.18518 | 18186 ft | 180 kts | 47° |
| 2026-05-04 11:35 | 55.09314 | -119.16617 | 18187 ft | 180 kts | 48° |
| 2026-05-04 11:35 | 55.09925 | -119.14706 | 18181 ft | 180 kts | 48° |
| 2026-05-04 11:36 | 55.10534 | -119.12800 | 18182 ft | 180 kts | 47° |
| 2026-05-04 11:36 | 55.11142 | -119.10897 | 18182 ft | 179 kts | 47° |
| 2026-05-04 11:36 | 55.11552 | -119.09613 | 18184 ft | 179 kts | 47° |
| 2026-05-04 11:36 | 55.12160 | -119.07708 | 18178 ft | 179 kts | 47° |
| 2026-05-04 11:37 | 55.12758 | -119.05830 | 18175 ft | 179 kts | 47° |
| 2026-05-04 11:37 | 55.13364 | -119.03931 | 18177 ft | 179 kts | 47° |
| 2026-05-04 11:37 | 55.13976 | -119.02008 | 18178 ft | 179 kts | 47° |
| 2026-05-04 11:37 | 55.14638 | -119.00223 | 18170 ft | 167 kts | 30° |
| 2026-05-04 11:38 | 55.15540 | -118.99185 | 18121 ft | 156 kts | 14° |
| 2026-05-04 11:38 | 55.16537 | -118.98299 | 17571 ft | 163 kts | 11° |
| 2026-05-04 11:38 | 55.17609 | -118.97762 | 17010 ft | 158 kts | 357° |
| 2026-05-04 11:38 | 55.18698 | -118.97610 | 16460 ft | 158 kts | 354° |
| 2026-05-04 11:39 | 55.19794 | -118.97512 | 15912 ft | 156 kts | 349° |
| 2026-05-04 11:39 | 55.20715 | -118.98241 | 15371 ft | 147 kts | 310° |
| 2026-05-04 11:40 | 55.19695 | -119.09555 | 11858 ft | 163 kts | 265° |
| 2026-05-04 11:41 | 55.19442 | -119.11498 | 11239 ft | 165 kts | 265° |
| 2026-05-04 11:41 | 55.19196 | -119.13464 | 10630 ft | 166 kts | 265° |
| 2026-05-04 11:41 | 55.18957 | -119.15444 | 10027 ft | 167 kts | 265° |
| 2026-05-04 11:41 | 55.18726 | -119.17436 | 9367 ft | 167 kts | 265° |
| 2026-05-04 11:42 | 55.18500 | -119.19434 | 8720 ft | 168 kts | 265° |
| 2026-05-04 11:42 | 55.18284 | -119.21444 | 8091 ft | 169 kts | 265° |
| 2026-05-04 11:42 | 55.18079 | -119.23466 | 7466 ft | 169 kts | 265° |
| 2026-05-04 11:42 | 55.17883 | -119.25471 | 6867 ft | 170 kts | 265° |
| 2026-05-04 11:43 | 55.17692 | -119.27509 | 6241 ft | 170 kts | 265° |
| 2026-05-04 11:43 | 55.17433 | -119.29519 | 5599 ft | 172 kts | 246° |
| 2026-05-04 11:43 | 55.16564 | -119.30918 | 4966 ft | 175 kts | 203° |
| 2026-05-04 11:43 | 55.15369 | -119.30949 | 4317 ft | 176 kts | 161° |
| 2026-05-04 11:44 | 55.14464 | -119.29604 | 3685 ft | 172 kts | 119° |
| 2026-05-04 11:44 | 55.14338 | -119.27680 | 3472 ft | 149 kts | 79° |
| 2026-05-04 11:44 | 55.14601 | -119.26077 | 3464 ft | 127 kts | 76° |
| 2026-05-04 11:44 | 55.14849 | -119.24497 | 3479 ft | 144 kts | 76° |
| 2026-05-04 11:45 | 55.15120 | -119.22746 | 3490 ft | 153 kts | 76° |
| 2026-05-04 11:45 | 55.15419 | -119.20926 | 3488 ft | 158 kts | 72° |
| 2026-05-04 11:45 | 55.15778 | -119.19087 | 3480 ft | 161 kts | 72° |
| 2026-05-04 11:45 | 55.16141 | -119.17238 | 3483 ft | 160 kts | 72° |
| 2026-05-04 11:46 | 55.16499 | -119.15422 | 3479 ft | 157 kts | 72° |
| 2026-05-04 11:46 | 55.16853 | -119.13629 | 3476 ft | 152 kts | 71° |
| 2026-05-04 11:46 | 55.17240 | -119.11942 | 3462 ft | 147 kts | 69° |
| 2026-05-04 11:46 | 55.17623 | -119.10307 | 3461 ft | 144 kts | 69° |
| 2026-05-04 11:47 | 55.17945 | -119.08692 | 3456 ft | 137 kts | 74° |
| 2026-05-04 11:47 | 55.18193 | -119.07112 | 3459 ft | 133 kts | 77° |
| 2026-05-04 11:47 | 55.18333 | -119.05538 | 3455 ft | 130 kts | 84° |
| 2026-05-04 11:47 | 55.18388 | -119.03945 | 3461 ft | 134 kts | 91° |
| 2026-05-04 11:48 | 55.18393 | -119.02302 | 3471 ft | 139 kts | 91° |
| 2026-05-04 11:48 | 55.18397 | -119.00610 | 3477 ft | 135 kts | 91° |
| 2026-05-04 11:48 | 55.18399 | -118.99132 | 3449 ft | 108 kts | 91° |
| 2026-05-04 11:48 | 55.18420 | -118.97983 | 3355 ft | 86 kts | 89° |
| 2026-05-04 11:49 | 55.18444 | -118.96960 | 3166 ft | 84 kts | 91° |
| 2026-05-04 11:49 | 55.18442 | -118.95928 | 3032 ft | 86 kts | 91° |
| 2026-05-04 11:49 | 55.18445 | -118.94887 | 2895 ft | 86 kts | 91° |
| 2026-05-04 11:49 | 55.18436 | -118.93849 | 2759 ft | 85 kts | 92° |
| 2026-05-04 11:50 | 55.18436 | -118.92803 | 2585 ft | 86 kts | 91° |
| 2026-05-04 11:50 | 55.18442 | -118.91761 | 2452 ft | 85 kts | 89° |
| 2026-05-04 11:50 | 55.18448 | -118.90721 | 2329 ft | 86 kts | 91° |
| 2026-05-04 11:50 | 55.18444 | -118.89692 | 2227 ft | 85 kts | 89° |
| 2026-05-04 11:51 | 55.18446 | -118.88743 | 2199 ft | 64 kts | 90° |
| 2026-05-04 11:51 | 55.18444 | -118.88227 | 2197 ft | 29 kts | 89° |
| 2026-05-04 11:51 | 55.18443 | -118.87932 | 2196 ft | 25 kts | 89° |
| 2026-05-04 11:51 | 55.18444 | -118.87595 | 2198 ft | 29 kts | 90° |
| 2026-05-04 11:52 | 55.18444 | -118.87297 | 2199 ft | 16 kts | 90° |
| 2026-05-04 11:52 | 55.18443 | -118.87128 | 2200 ft | 11 kts | 89° |
| 2026-05-04 11:52 | 55.18423 | -118.87019 | 2200 ft | 9 kts | 146° |
| 2026-05-04 11:52 | 55.18359 | -118.87002 | 2199 ft | 10 kts | 180° |
| 2026-05-04 11:53 | 55.18290 | -118.87003 | 2198 ft | 10 kts | 184° |
| 2026-05-04 11:53 | 55.18240 | -118.87068 | 2198 ft | 10 kts | 261° |
| 2026-05-04 11:53 | 55.18244 | -118.87187 | 2198 ft | 9 kts | 268° |
| 2026-05-04 11:53 | 55.18241 | -118.87359 | 2198 ft | 18 kts | 268° |
| 2026-05-04 11:55 | 55.17989 | -118.87790 | 2196 ft | 0 kts | 108° |